createdAt,value
2019-02-25T00:00:18.852Z,17.9
2019-02-25T00:02:19.470Z,15.2
2019-02-25T00:04:19.081Z,16.7
2019-02-25T00:06:19.351Z,12.5
2019-02-25T00:08:18.999Z,15.1
2019-02-25T00:10:19.078Z,18.8
2019-02-25T00:12:18.692Z,17.5
2019-02-25T00:14:19.350Z,17.8
2019-02-25T00:16:19.316Z,21.1
2019-02-25T00:18:19.047Z,17.5
2019-02-25T00:20:18.730Z,18.7
2019-02-25T00:22:19.354Z,11
2019-02-25T00:24:19.008Z,12.5
2019-02-25T00:26:19.260Z,14
2019-02-25T00:28:18.890Z,16.1
2019-02-25T00:30:19.528Z,12.9
2019-02-25T00:32:19.198Z,11.5
2019-02-25T00:34:18.831Z,16.2
2019-02-25T00:36:18.624Z,20.8
2019-02-25T00:38:19.253Z,16.1
2019-02-25T00:40:19.381Z,12.2
2019-02-25T00:42:18.998Z,15.3
2019-02-25T00:44:18.620Z,12.9
2019-02-25T00:46:19.411Z,9.5
2019-02-25T00:48:19.070Z,13.5
2019-02-25T00:50:18.720Z,15.5
2019-02-25T00:52:19.361Z,18
2019-02-25T00:54:18.991Z,17.6
2019-02-25T00:56:18.790Z,16.7
2019-02-25T00:58:19.407Z,11.7
2019-02-25T01:00:19.049Z,15.6
2019-02-25T01:02:18.684Z,22.3
2019-02-25T01:04:19.323Z,14.2
2019-02-25T01:06:19.075Z,13.5
2019-02-25T01:08:18.708Z,10
2019-02-25T01:10:18.841Z,14.9
2019-02-25T01:12:19.501Z,19.3
2019-02-25T01:14:19.112Z,10.1
2019-02-25T01:16:18.607Z,10.4
2019-02-25T01:18:19.305Z,11.1
2019-02-25T01:20:18.948Z,10.7
2019-02-25T01:22:18.561Z,13.4
2019-02-25T01:24:19.164Z,10.9
2019-02-25T01:26:19.423Z,11.7
2019-02-25T01:28:19.053Z,10.2
2019-02-25T01:30:18.705Z,12.6
2019-02-25T01:32:19.347Z,15.4
2019-02-25T01:34:18.978Z,13.7
2019-02-25T01:36:19.271Z,6.9
2019-02-25T01:38:18.910Z,9.9
2019-02-25T01:40:19.070Z,12.3
2019-02-25T01:42:18.676Z,13.6
2019-02-25T01:44:19.307Z,10.6
2019-02-25T01:46:18.976Z,10.1
2019-02-25T01:48:18.599Z,16
2019-02-25T01:50:19.242Z,14.3
2019-02-25T01:52:18.872Z,12.3
2019-02-25T01:54:19.495Z,9.8
2019-02-25T01:56:18.792Z,9.3
2019-02-25T01:58:19.412Z,12.1
2019-02-25T02:00:19.055Z,12.9
2019-02-25T02:02:18.700Z,9.1
2019-02-25T02:04:19.318Z,16.2
2019-02-25T02:06:19.078Z,10.4
2019-02-25T02:08:18.688Z,9.9
2019-02-25T02:10:18.787Z,8.8
2019-02-25T02:12:19.427Z,8.8
2019-02-25T02:14:19.068Z,12.7
2019-02-25T02:16:19.301Z,11.5
2019-02-25T02:18:19.012Z,15.8
2019-02-25T02:20:18.673Z,12.5
2019-02-25T02:22:19.307Z,10.2
2019-02-25T02:24:18.930Z,14.1
2019-02-25T02:26:21.346Z,10.6
2019-02-25T02:28:18.977Z,10.4
2019-02-25T02:30:18.721Z,14.9
2019-02-25T02:32:19.365Z,10.8
2019-02-25T02:34:19.032Z,7
2019-02-25T02:36:19.345Z,17.3
2019-02-25T02:38:18.974Z,9.4
2019-02-25T02:40:19.118Z,7
2019-02-25T02:42:18.772Z,10.7
2019-02-25T02:44:19.419Z,15.3
2019-02-25T02:46:19.219Z,14.6
2019-02-25T02:48:18.836Z,9.5
2019-02-25T02:50:19.490Z,10.9
2019-02-25T02:52:19.104Z,11.1
2019-02-25T02:54:18.742Z,12.7
2019-02-25T02:56:19.001Z,7.4
2019-02-25T02:58:18.594Z,11.1
2019-02-25T03:00:19.240Z,9.1
2019-02-25T03:02:18.884Z,7
2019-02-25T03:04:19.524Z,9.3
2019-02-25T03:06:19.418Z,12.1
2019-02-25T03:08:19.019Z,11.7
2019-02-25T03:10:19.175Z,10.3
2019-02-25T03:12:18.798Z,9.6
2019-02-25T03:14:19.431Z,13.1
2019-02-25T03:16:18.702Z,8.8
2019-02-25T03:18:19.411Z,8.2
2019-02-25T03:20:19.121Z,11.3
2019-02-25T03:22:18.779Z,11.3
2019-02-25T03:24:19.405Z,9.8
2019-02-25T03:26:18.783Z,10.5
2019-02-25T03:28:19.408Z,11.7
2019-02-25T03:30:19.106Z,10.2
2019-02-25T03:32:18.759Z,9.5
2019-02-25T03:34:19.387Z,11.5
2019-02-25T03:36:18.686Z,14.4
2019-02-25T03:38:19.308Z,12.7
2019-02-25T03:40:19.398Z,10.3
2019-02-25T03:42:19.046Z,11.5
2019-02-25T03:44:18.658Z,11.7
2019-02-25T03:46:18.936Z,11.5
2019-02-25T03:48:19.571Z,9.4
2019-02-25T03:50:19.214Z,11.8
2019-02-25T03:52:18.886Z,15
2019-02-25T03:54:19.520Z,16.3
2019-02-25T03:56:18.793Z,9.6
2019-02-25T03:58:19.488Z,9.9
2019-02-25T04:00:19.136Z,17
2019-02-25T04:02:18.744Z,15.4
2019-02-25T04:04:19.369Z,11.1
2019-02-25T04:06:18.667Z,11.8
2019-02-25T04:08:19.315Z,12.8
2019-02-25T04:10:19.510Z,9.9
2019-02-25T04:12:19.164Z,7.6
2019-02-25T04:14:18.779Z,14
2019-02-25T04:16:19.074Z,11.3
2019-02-25T04:18:18.755Z,9.6
2019-02-25T04:20:19.412Z,12.8
2019-02-25T04:22:19.025Z,10.7
2019-02-25T04:24:18.660Z,7.4
2019-02-25T04:26:18.905Z,7.5
2019-02-25T04:28:19.518Z,7.3
2019-02-25T04:30:19.167Z,16.5
2019-02-25T04:32:18.802Z,10.2
2019-02-25T04:34:19.438Z,6.5
2019-02-25T04:36:18.672Z,15.5
2019-02-25T04:38:19.275Z,12.6
2019-02-25T04:40:19.382Z,8.6
2019-02-25T04:42:19.025Z,9.8
2019-02-25T04:44:18.654Z,11
2019-02-25T04:46:18.836Z,15.3
2019-02-25T04:48:19.495Z,7.6
2019-02-25T04:50:19.104Z,7.8
2019-02-25T04:52:18.728Z,12
2019-02-25T04:54:19.329Z,7.7
2019-02-25T04:56:19.539Z,11
2019-02-25T04:58:19.132Z,11.9
2019-02-25T05:00:18.755Z,7.8
2019-02-25T05:02:19.355Z,9.2
2019-02-25T05:04:18.981Z,9.5
2019-02-25T05:06:18.739Z,9
2019-02-25T05:08:19.323Z,15
2019-02-25T05:10:19.449Z,11.3
2019-02-25T05:12:19.086Z,12.6
2019-02-25T05:14:18.699Z,10.5
2019-02-25T05:16:19.064Z,9.2
2019-02-25T05:18:18.747Z,15.9
2019-02-25T05:20:19.390Z,14.8
2019-02-25T05:22:19.000Z,15.5
2019-02-25T05:24:18.614Z,8.9
2019-02-25T05:26:19.081Z,9.5
2019-02-25T05:28:18.692Z,10.5
2019-02-25T05:30:19.377Z,8.9
2019-02-25T05:32:19.001Z,16
2019-02-25T05:34:18.583Z,11
2019-02-25T05:36:18.792Z,11.4
2019-02-25T05:38:19.397Z,14.3
2019-02-25T05:40:19.514Z,18.8
2019-02-25T05:42:19.143Z,14.5
2019-02-25T05:44:18.781Z,14.6
2019-02-25T05:46:19.140Z,11
2019-02-25T05:48:18.753Z,11.2
2019-02-25T05:50:19.388Z,10.7
2019-02-25T05:52:19.048Z,9.8
2019-02-25T05:54:18.671Z,15.3
2019-02-25T05:56:19.122Z,11.8
2019-02-25T05:58:18.765Z,17.1
2019-02-25T06:00:19.379Z,7.9
2019-02-25T06:02:19.024Z,8
2019-02-25T06:04:18.649Z,7.9
2019-02-25T06:06:18.899Z,10.5
2019-02-25T06:08:19.534Z,10.5
2019-02-25T06:10:18.644Z,13.2
2019-02-25T06:12:19.252Z,14.7
2019-02-25T06:14:18.864Z,12.4
2019-02-25T06:16:19.100Z,12.2
2019-02-25T06:18:18.795Z,10.3
2019-02-25T06:20:19.462Z,9.7
2019-02-25T06:22:19.091Z,13.4
2019-02-25T06:24:18.678Z,12.2
2019-02-25T06:26:18.966Z,21
2019-02-25T06:28:18.619Z,10
2019-02-25T06:30:19.309Z,9.9
2019-02-25T06:32:18.932Z,14
2019-02-25T06:34:19.549Z,9.7
2019-02-25T06:36:19.331Z,10.2
2019-02-25T06:38:18.955Z,12.9
2019-02-25T06:40:19.091Z,13.7
2019-02-25T06:42:18.719Z,9.8
2019-02-25T06:44:19.330Z,13.9
2019-02-25T06:46:18.683Z,11.2
2019-02-25T06:48:19.318Z,12.1
2019-02-25T06:50:18.950Z,17.2
2019-02-25T06:52:20.263Z,8.4
2019-02-25T06:54:18.881Z,11.7
2019-02-25T06:56:19.151Z,10.6
2019-02-25T06:58:18.742Z,10.5
2019-02-25T07:00:19.387Z,13.4
2019-02-25T07:02:19.046Z,9.2
2019-02-25T07:04:18.689Z,13.1
2019-02-25T07:06:18.930Z,8.7
2019-02-25T07:08:19.558Z,18.2
2019-02-25T07:10:18.663Z,11.2
2019-02-25T07:12:19.256Z,13.6
2019-02-25T07:14:18.856Z,13.3
2019-02-25T07:16:19.199Z,11.6
2019-02-25T07:18:18.901Z,12.8
2019-02-25T07:20:19.609Z,13.3
2019-02-25T07:22:19.254Z,11
2019-02-25T07:24:18.865Z,13.8
2019-02-25T07:26:18.673Z,10.8
2019-02-25T07:28:19.270Z,11.8
2019-02-25T07:30:18.880Z,13.3
2019-02-25T07:32:19.485Z,9.9
2019-02-25T07:34:19.091Z,10.9
2019-02-25T07:36:18.896Z,14
2019-02-25T07:38:19.510Z,12
2019-02-25T07:40:18.633Z,12.9
2019-02-25T07:42:19.282Z,13.4
2019-02-25T07:44:18.872Z,14.8
2019-02-25T07:46:19.139Z,9
2019-02-25T07:48:18.732Z,13.3
2019-02-25T07:50:19.359Z,18.1
2019-02-25T07:52:18.973Z,9.2
2019-02-25T07:54:18.591Z,14.2
2019-02-25T07:56:18.851Z,13.3
2019-02-25T07:58:19.473Z,9.9
2019-02-25T08:00:19.091Z,11.8
2019-02-25T08:02:18.737Z,11
2019-02-25T08:04:19.363Z,16.6
2019-02-25T08:06:19.071Z,11.3
2019-02-25T08:08:18.688Z,12.5
2019-02-25T08:10:18.758Z,12.9
2019-02-25T08:12:19.395Z,7.6
2019-02-25T08:14:19.026Z,10.6
2019-02-25T08:16:18.800Z,9.4
2019-02-25T08:18:19.474Z,13.8
2019-02-25T08:20:19.127Z,11.9
2019-02-25T08:22:18.767Z,20.1
2019-02-25T08:24:19.395Z,14.7
2019-02-25T08:26:18.641Z,17.3
2019-02-25T08:28:19.258Z,13.2
2019-02-25T08:30:18.881Z,10.8
2019-02-25T08:32:19.485Z,16
2019-02-25T08:34:19.379Z,15
2019-02-25T08:36:18.657Z,10.2
2019-02-25T08:38:19.279Z,12.3
2019-02-25T08:40:19.366Z,13.9
2019-02-25T08:42:19.010Z,16.2
2019-02-25T08:44:18.629Z,20.9
2019-02-25T08:46:19.457Z,16.9
2019-02-25T08:48:19.097Z,15.8
2019-02-25T08:50:18.738Z,22.8
2019-02-25T08:52:19.367Z,17.8
2019-02-25T08:54:18.990Z,15.9
2019-02-25T08:56:19.220Z,17.3
2019-02-25T08:58:18.839Z,14.8
2019-02-25T09:00:19.486Z,19.2
2019-02-25T09:02:19.132Z,21.5
2019-02-25T09:04:18.754Z,14.9
2019-02-25T09:06:18.987Z,15.6
2019-02-25T09:08:18.594Z,14
2019-02-25T09:10:18.751Z,15.1
2019-02-25T09:12:19.385Z,15.6
2019-02-25T09:14:19.011Z,23.6
2019-02-25T09:16:18.742Z,17.9
2019-02-25T09:18:19.420Z,19.4
2019-02-25T09:20:19.066Z,17.1
2019-02-25T09:22:18.684Z,16.9
2019-02-25T09:24:19.298Z,17.8
2019-02-25T09:26:18.725Z,13.8
2019-02-25T09:28:19.316Z,15.5
2019-02-25T09:30:19.053Z,17.2
2019-02-25T09:32:19.348Z,16.6
2019-02-25T09:34:18.978Z,19.9
2019-02-25T09:36:19.237Z,15.9
2019-02-25T09:38:18.867Z,17.1
2019-02-25T09:40:18.984Z,21.6
2019-02-25T09:42:18.622Z,15.4
2019-02-25T09:44:19.234Z,18.2
2019-02-25T09:46:19.541Z,25.4
2019-02-25T09:48:19.180Z,23.6
2019-02-25T09:50:18.827Z,23.1
2019-02-25T09:52:19.470Z,17.9
2019-02-25T09:54:19.092Z,17.3
2019-02-25T09:56:18.676Z,19.4
2019-02-25T09:58:19.298Z,21.7
2019-02-25T10:00:18.939Z,19.1
2019-02-25T10:02:18.597Z,22.4
2019-02-25T10:04:19.217Z,18
2019-02-25T10:06:19.094Z,21.4
2019-02-25T10:08:18.734Z,26.7
2019-02-25T10:10:18.891Z,20.9
2019-02-25T10:12:19.509Z,21.2
2019-02-25T10:14:19.146Z,19
2019-02-25T10:16:19.432Z,23.6
2019-02-25T10:18:19.124Z,20.1
2019-02-25T10:20:18.738Z,23.8
2019-02-25T10:22:19.382Z,24
2019-02-25T10:24:19.015Z,19.4
2019-02-25T10:26:19.260Z,19
2019-02-25T10:28:18.863Z,19
2019-02-25T10:30:19.519Z,30.6
2019-02-25T10:32:19.179Z,23.6
2019-02-25T10:34:18.801Z,26.1
2019-02-25T10:36:19.021Z,24.4
2019-02-25T10:38:21.624Z,26.3
2019-02-25T10:40:27.262Z,34.1
2019-02-25T10:42:19.008Z,20.2
2019-02-25T10:44:18.621Z,25
2019-02-25T10:46:18.674Z,29.6
2019-02-25T10:48:21.983Z,25.6
2019-02-25T10:50:18.922Z,25.6
2019-02-25T10:52:19.577Z,25.3
2019-02-25T10:54:23.140Z,26.2
2019-02-25T10:56:23.614Z,25.8
2019-02-25T10:58:19.382Z,25
2019-02-25T11:00:19.035Z,30.4
2019-02-25T11:02:19.699Z,25.5
2019-02-25T11:04:22.084Z,22.6
2019-02-25T11:06:19.056Z,30.8
2019-02-25T11:08:18.677Z,31.8
2019-02-25T11:10:22.354Z,33
2019-02-25T11:12:19.116Z,26.9
2019-02-25T11:14:18.723Z,44.5
2019-02-25T11:16:20.566Z,34.3
2019-02-25T11:18:22.305Z,28.6
2019-02-25T11:20:19.531Z,24.4
2019-02-25T11:22:19.167Z,25.3
2019-02-25T11:24:22.781Z,24.8
2019-02-25T11:26:18.721Z,19.7
2019-02-25T11:28:26.205Z,22.4
2019-02-25T11:30:23.661Z,27.3
2019-02-25T11:32:23.637Z,21.1
2019-02-25T11:34:19.095Z,18
2019-02-25T11:36:22.157Z,19.2
2019-02-25T11:38:18.843Z,32.4
2019-02-25T11:40:18.954Z,27.9
2019-02-25T11:42:20.799Z,22.8
2019-02-25T11:44:23.354Z,17
2019-02-25T11:46:18.931Z,23.5
2019-02-25T11:48:19.554Z,29.7
2019-02-25T11:50:19.211Z,30.8
2019-02-25T11:52:18.850Z,23.7
2019-02-25T11:54:19.490Z,26
2019-02-25T11:56:18.703Z,24.1
2019-02-25T11:58:19.331Z,21.4
2019-02-25T12:00:18.980Z,22
2019-02-25T12:02:26.173Z,19.7
2019-02-25T12:04:18.828Z,23.2
2019-02-25T12:06:18.730Z,30.3
2019-02-25T12:08:19.352Z,30.7
2019-02-25T12:10:19.451Z,34.5
2019-02-25T12:12:19.073Z,26.3
2019-02-25T12:14:18.703Z,30.3
2019-02-25T12:16:18.978Z,31
2019-02-25T12:18:18.664Z,26.5
2019-02-25T12:20:19.310Z,29.2
2019-02-25T12:22:18.939Z,21.9
2019-02-25T12:24:19.561Z,31.4
2019-02-25T12:26:18.792Z,29.4
2019-02-25T12:28:19.411Z,33
2019-02-25T12:30:19.098Z,27.7
2019-02-25T12:32:19.455Z,29.2
2019-02-25T12:34:19.088Z,22.5
2019-02-25T12:36:18.822Z,25.7
2019-02-25T12:38:19.451Z,22.3
2019-02-25T12:40:19.555Z,22.2
2019-02-25T12:42:19.193Z,30.2
2019-02-25T12:44:18.808Z,22.6
2019-02-25T12:46:19.192Z,23.1
2019-02-25T12:48:18.828Z,26.9
2019-02-25T12:50:19.495Z,25
2019-02-25T12:52:19.158Z,20.8
2019-02-25T12:54:18.807Z,24.2
2019-02-25T12:56:19.568Z,22.6
2019-02-25T12:58:19.209Z,26.3
2019-02-25T13:00:18.900Z,28.1
2019-02-25T13:02:19.524Z,26
2019-02-25T13:04:19.160Z,25.5
2019-02-25T13:06:19.592Z,21.5
2019-02-25T13:08:19.241Z,22.4
2019-02-25T13:10:19.359Z,19.4
2019-02-25T13:12:19.030Z,23.2
2019-02-25T13:14:18.661Z,32.9
2019-02-25T13:16:18.657Z,16.4
2019-02-25T13:18:19.448Z,15.4
2019-02-25T13:20:19.131Z,22.3
2019-02-25T13:22:18.779Z,22.2
2019-02-25T13:24:19.394Z,24.5
2019-02-25T13:26:19.374Z,34
2019-02-25T13:28:19.024Z,23.7
2019-02-25T13:30:18.673Z,20.6
2019-02-25T13:32:19.569Z,22.4
2019-02-25T13:34:19.416Z,24.3
2019-02-25T13:36:18.758Z,20.7
2019-02-25T13:38:19.420Z,24.6
2019-02-25T13:40:19.975Z,20
2019-02-25T13:42:18.672Z,23.3
2019-02-25T13:44:18.362Z,17.8
2019-02-25T13:46:18.106Z,18.4
2019-02-25T13:48:18.792Z,22.3
2019-02-25T13:50:18.524Z,23.2
2019-02-25T13:52:19.320Z,21.2
2019-02-25T13:54:18.041Z,17.9
2019-02-25T13:56:18.988Z,14.2
2019-02-25T13:58:18.651Z,17.8
2019-02-25T14:00:19.384Z,18.4
2019-02-25T14:02:19.126Z,19.1
2019-02-25T14:04:17.795Z,20.2
2019-02-25T14:06:19.288Z,18.8
2019-02-25T14:08:18.064Z,15.4
2019-02-25T14:10:19.413Z,18.2
2019-02-25T14:12:18.138Z,17.8
2019-02-25T14:14:17.839Z,21.7
2019-02-25T14:16:18.480Z,16.1
2019-02-25T14:18:18.465Z,29.4
2019-02-25T14:20:18.195Z,20.3
2019-02-25T14:22:17.944Z,20.2
2019-02-25T14:24:20.960Z,19.9
2019-02-25T14:26:19.235Z,18.7
2019-02-25T14:28:17.939Z,14.3
2019-02-25T14:30:17.659Z,24
2019-02-25T14:32:18.659Z,17.5
2019-02-25T14:34:17.609Z,17.8
2019-02-25T14:36:20.085Z,18
2019-02-25T14:38:20.434Z,13.4
2019-02-25T14:40:22.137Z,19
2019-02-25T14:42:23.706Z,12.2
2019-02-25T14:44:18.539Z,35.7
2019-02-25T14:46:24.893Z,17.8
2019-02-25T14:48:23.385Z,16.6
2019-02-25T14:50:17.688Z,22.9
2019-02-25T14:52:22.402Z,20.4
2019-02-25T14:54:17.749Z,15.6
2019-02-25T14:56:18.635Z,18.2
2019-02-25T14:58:18.313Z,18.6
2019-02-25T15:00:18.042Z,23.5
2019-02-25T15:02:17.721Z,18.3
2019-02-25T15:04:18.424Z,17.4
2019-02-25T15:06:17.751Z,17
2019-02-25T15:08:21.507Z,27.9
2019-02-25T15:10:19.039Z,14.9
2019-02-25T15:12:17.747Z,14.8
2019-02-25T15:14:19.472Z,15.9
2019-02-25T15:16:19.063Z,22
2019-02-25T15:18:17.812Z,13.4
2019-02-25T15:20:23.326Z,15.6
2019-02-25T15:22:17.719Z,18.3
2019-02-25T15:24:19.441Z,13
2019-02-25T15:26:21.528Z,23.2
2019-02-25T15:28:22.500Z,19.3
2019-02-25T15:30:23.333Z,14.3
2019-02-25T15:32:18.621Z,20.7
2019-02-25T15:34:19.491Z,21
2019-02-25T15:36:22.961Z,14.2
2019-02-25T15:38:19.402Z,31.3
2019-02-25T15:40:24.453Z,21.8
2019-02-25T15:42:17.630Z,20.8
2019-02-25T15:44:19.324Z,20.3
2019-02-25T15:46:24.168Z,14.3
2019-02-25T15:48:19.364Z,19.4
2019-02-25T15:50:19.085Z,14.2
2019-02-25T15:52:22.892Z,15
2019-02-25T15:54:19.588Z,17.7
2019-02-25T15:56:18.956Z,17.5
2019-02-25T15:58:18.636Z,18.9
2019-02-25T16:00:23.412Z,20
2019-02-25T16:02:19.009Z,18.2
2019-02-25T16:04:17.699Z,20
2019-02-25T16:06:19.442Z,17
2019-02-25T16:08:23.710Z,17.5
2019-02-25T16:10:19.099Z,20.4
2019-02-25T16:12:18.782Z,19.2
2019-02-25T16:14:23.488Z,16.8
2019-02-25T16:16:20.365Z,20.2
2019-02-25T16:18:19.414Z,16.3
2019-02-25T16:20:19.827Z,15.9
2019-02-25T16:22:19.540Z,13.2
2019-02-25T16:24:19.477Z,17.6
2019-02-25T16:26:20.330Z,14.3
2019-02-25T16:28:19.031Z,20.6
2019-02-25T16:30:21.767Z,16
2019-02-25T16:32:21.430Z,18.4
2019-02-25T16:34:20.889Z,19.1
2019-02-25T16:36:19.077Z,18.7
2019-02-25T16:38:23.447Z,18.9
2019-02-25T16:40:19.429Z,19.2
2019-02-25T16:42:19.005Z,25.8
2019-02-25T16:44:18.705Z,22.9
2019-02-25T16:46:20.612Z,18.5
2019-02-25T16:48:26.372Z,16.2
2019-02-25T16:50:23.242Z,22
2019-02-25T16:52:22.794Z,18
2019-02-25T16:54:22.892Z,18.7
2019-02-25T16:56:18.967Z,16.4
2019-02-25T16:58:18.893Z,17.5
2019-02-25T17:00:19.620Z,17.7
2019-02-25T17:02:19.349Z,18.8
2019-02-25T17:04:24.869Z,19.6
2019-02-25T17:06:18.863Z,20.8
2019-02-25T17:08:19.559Z,19.2
2019-02-25T17:10:24.563Z,20.3
2019-02-25T17:12:21.523Z,19.2
2019-02-25T17:14:21.812Z,20.9
2019-02-25T17:16:24.174Z,16.9
2019-02-25T17:18:19.004Z,30.9
2019-02-25T17:20:18.944Z,17.6
2019-02-25T17:22:18.828Z,19.8
2019-02-25T17:24:26.212Z,14
2019-02-25T17:26:19.850Z,19.2
2019-02-25T17:28:23.167Z,17.6
2019-02-25T17:30:22.420Z,19.6
2019-02-25T17:32:21.671Z,18.9
2019-02-25T17:34:21.026Z,20.4
2019-02-25T17:36:19.020Z,17.2
2019-02-25T17:40:19.203Z,23.8
2019-02-25T17:40:20.312Z,19.4
2019-02-25T17:42:22.098Z,23.8
2019-02-25T17:44:27.755Z,16.6
2019-02-25T17:46:18.974Z,21.3
2019-02-25T17:48:21.407Z,18.5
2019-02-25T17:50:19.157Z,25
2019-02-25T17:52:22.928Z,28.7
2019-02-25T17:54:18.649Z,19.5
2019-02-25T17:56:22.914Z,19
2019-02-25T17:58:22.364Z,19.5
2019-02-25T18:00:18.649Z,28.6
2019-02-25T18:02:19.331Z,22
2019-02-25T18:04:19.006Z,24.7
2019-02-25T18:06:25.833Z,20.5
2019-02-25T18:08:19.195Z,21.8
2019-02-25T18:10:22.830Z,21.8
2019-02-25T18:12:19.331Z,21.3
2019-02-25T18:14:20.097Z,20.9
2019-02-25T18:16:19.313Z,22.5
2019-02-25T18:18:22.674Z,27.2
2019-02-25T18:20:19.020Z,21.7
2019-02-25T18:22:18.947Z,24.9
2019-02-25T18:24:18.908Z,26
2019-02-25T18:26:18.662Z,20.4
2019-02-25T18:28:22.536Z,28
2019-02-25T18:30:19.583Z,25.3
2019-02-25T18:32:19.794Z,27.9
2019-02-25T18:34:18.744Z,36.7
2019-02-25T18:36:19.009Z,18
2019-02-25T18:38:18.670Z,24.2
2019-02-25T18:40:20.818Z,23.1
2019-02-25T18:42:20.785Z,21.9
2019-02-25T18:44:19.490Z,20.3
2019-02-25T18:46:21.213Z,19.7
2019-02-25T18:48:22.794Z,26.1
2019-02-25T18:50:22.216Z,18
2019-02-25T18:52:18.640Z,22.3
2019-02-25T18:54:22.909Z,26.5
2019-02-25T18:56:22.300Z,23.1
2019-02-25T18:58:19.341Z,28.6
2019-02-25T19:00:22.130Z,27.5
2019-02-25T19:02:20.308Z,24.8
2019-02-25T19:04:21.926Z,26.3
2019-02-25T19:06:21.409Z,28.7
2019-02-25T19:08:22.905Z,28.2
2019-02-25T19:10:23.143Z,29.9
2019-02-25T19:12:19.283Z,23.6
2019-02-25T19:14:23.813Z,23.2
2019-02-25T19:16:21.932Z,18.9
2019-02-25T19:18:19.429Z,21.2
2019-02-25T19:20:19.126Z,29.4
2019-02-25T19:22:19.736Z,23.9
2019-02-25T19:24:19.615Z,25.1
2019-02-25T19:26:21.965Z,23.5
2019-02-25T19:28:22.171Z,22.3
2019-02-25T19:30:22.821Z,24.9
2019-02-25T19:32:23.630Z,25.8
2019-02-25T19:34:19.357Z,25.6
2019-02-25T19:36:19.489Z,21.4
2019-02-25T19:38:19.299Z,25.2
2019-02-25T19:40:24.300Z,19.2
2019-02-25T19:42:24.288Z,20.8
2019-02-25T19:44:21.379Z,22.3
2019-02-25T19:46:18.866Z,47.3
2019-02-25T19:48:25.724Z,18
2019-02-25T19:50:18.897Z,16.2
2019-02-25T19:52:19.560Z,23.8
2019-02-25T19:54:19.228Z,17.1
2019-02-25T19:56:18.949Z,20.6
2019-02-25T19:58:18.585Z,24
2019-02-25T20:00:24.965Z,22.9
2019-02-25T20:02:19.581Z,20.2
2019-02-25T20:04:19.484Z,22.4
2019-02-25T20:06:23.521Z,25.8
2019-02-25T20:08:18.907Z,24.1
2019-02-25T20:10:19.286Z,19.4
2019-02-25T20:12:21.165Z,20.7
2019-02-25T20:14:19.957Z,20.2
2019-02-25T20:16:22.811Z,18
2019-02-25T20:18:19.507Z,21.1
2019-02-25T20:20:19.497Z,20
2019-02-25T20:22:19.129Z,17.6
2019-02-25T20:24:23.359Z,19.9
2019-02-25T20:26:22.857Z,20.4
2019-02-25T20:28:22.778Z,19.8
2019-02-25T20:30:21.751Z,18.6
2019-02-25T20:32:20.925Z,27
2019-02-25T20:34:22.900Z,20.7
2019-02-25T20:36:23.632Z,18
2019-02-25T20:38:24.910Z,20.2
2019-02-25T20:40:23.516Z,19.3
2019-02-25T20:42:24.359Z,23.1
2019-02-25T20:44:23.925Z,21.2
2019-02-25T20:46:24.031Z,16
2019-02-25T20:48:19.094Z,14.9
2019-02-25T20:50:18.728Z,25.8
2019-02-25T20:52:22.273Z,18.6
2019-02-25T20:54:22.778Z,18.6
2019-02-25T20:56:19.186Z,17.6
2019-02-25T20:58:23.044Z,26.4
2019-02-25T21:00:20.271Z,23.6
2019-02-25T21:02:23.140Z,25.8
2019-02-25T21:04:22.312Z,19.6
2019-02-25T21:06:21.442Z,15.7
2019-02-25T21:08:21.678Z,20.8
2019-02-25T21:10:19.554Z,18.4
2019-02-25T21:12:20.389Z,23.1
2019-02-25T21:14:19.024Z,20.6
2019-02-25T21:16:18.861Z,23.4
2019-02-25T21:18:22.802Z,25.4
2019-02-25T21:20:21.781Z,21.9
2019-02-25T21:22:18.832Z,23
2019-02-25T21:24:19.475Z,24.1
2019-02-25T21:26:19.269Z,25.6
2019-02-25T21:28:18.923Z,26.3
2019-02-25T21:30:19.591Z,18.6
2019-02-25T21:32:22.001Z,18.2
2019-02-25T21:34:24.314Z,20.9
2019-02-25T21:36:19.566Z,18.2
2019-02-25T21:38:22.079Z,16.9
2019-02-25T21:40:22.262Z,23
2019-02-25T21:42:24.498Z,28.5
2019-02-25T21:44:24.173Z,15.1
2019-02-25T21:46:24.611Z,16.4
2019-02-25T21:48:24.922Z,28
2019-02-25T21:50:18.813Z,24.2
2019-02-25T21:52:19.431Z,23.2
2019-02-25T21:54:19.082Z,21.7
2019-02-25T21:56:22.600Z,19.8
2019-02-25T21:58:23.132Z,23.7
2019-02-25T22:00:19.275Z,20.4
2019-02-25T22:02:18.894Z,15.1
2019-02-25T22:04:22.985Z,17.8
2019-02-25T22:06:24.386Z,12.8
2019-02-25T22:08:24.286Z,15.2
2019-02-25T22:10:19.566Z,18.9
2019-02-25T22:12:19.235Z,17
2019-02-25T22:14:23.784Z,14.6
2019-02-25T22:16:19.291Z,20.8
2019-02-25T22:18:18.996Z,16.1
2019-02-25T22:20:22.079Z,14.4
2019-02-25T22:22:26.140Z,19.6
2019-02-25T22:24:18.966Z,16.4
2019-02-25T22:26:19.198Z,13.3
2019-02-25T22:28:18.825Z,19.8
2019-02-25T22:30:19.515Z,14.3
2019-02-25T22:32:19.137Z,17.1
2019-02-25T22:34:22.925Z,17.2
2019-02-25T22:36:18.682Z,15.1
2019-02-25T22:38:19.307Z,17.5
2019-02-25T22:40:19.406Z,19.8
2019-02-25T22:42:19.045Z,19.3
2019-02-25T22:44:18.669Z,15.7
2019-02-25T22:46:18.864Z,14.5
2019-02-25T22:48:23.301Z,15
2019-02-25T22:50:19.019Z,14.9
2019-02-25T22:52:24.753Z,11.2
2019-02-25T22:54:21.615Z,16.3
2019-02-25T22:56:24.724Z,17.6
2019-02-25T22:58:19.557Z,16.8
2019-02-25T23:00:22.691Z,14.4
2019-02-25T23:02:19.353Z,12.7
2019-02-25T23:04:22.358Z,16.2
2019-02-25T23:06:23.066Z,17.4
2019-02-25T23:08:23.508Z,17.3
2019-02-25T23:10:23.979Z,14.9
2019-02-25T23:12:21.813Z,16.2
2019-02-25T23:14:18.968Z,20.3
2019-02-25T23:16:25.377Z,19.2
2019-02-25T23:18:25.063Z,16.8
2019-02-25T23:20:19.479Z,14.2
2019-02-25T23:22:19.131Z,13.3
2019-02-25T23:24:18.764Z,13.2
2019-02-25T23:26:21.726Z,10.7
2019-02-25T23:28:25.395Z,17.5
2019-02-25T23:30:18.751Z,15.5
2019-02-25T23:32:19.369Z,17.9
2019-02-25T23:34:22.737Z,17.5
2019-02-25T23:36:21.760Z,18.6
2019-02-25T23:38:19.250Z,13
2019-02-25T23:40:19.326Z,17.8
2019-02-25T23:42:18.924Z,20.9
2019-02-25T23:44:24.168Z,14.4
2019-02-25T23:46:27.220Z,14.7
2019-02-25T23:48:18.986Z,11.9
2019-02-25T23:50:18.615Z,21.3
2019-02-25T23:52:19.241Z,17.6
2019-02-25T23:54:23.131Z,13.1
2019-02-25T23:56:25.068Z,14.5
2019-02-25T23:58:23.629Z,14.1
